sensor_id;sensor_type;location;lat;lon;timestamp;P1;durP1;ratioP1;P2;durP2;ratioP2
2041;SDS011;1026;51.460;7.252;2023-02-11T00:00:58;29.07;;;16.77;;
2041;SDS011;1026;51.460;7.252;2023-02-11T00:03:24;23.63;;;16.20;;
2041;SDS011;1026;51.460;7.252;2023-02-11T00:05:58;27.20;;;17.37;;
2041;SDS011;1026;51.460;7.252;2023-02-11T00:08:24;30.67;;;18.60;;
2041;SDS011;1026;51.460;7.252;2023-02-11T00:10:51;23.53;;;15.40;;
2041;SDS011;1026;51.460;7.252;2023-02-11T00:13:19;25.73;;;16.40;;
2041;SDS011;1026;51.460;7.252;2023-02-11T00:15:45;28.57;;;17.50;;
2041;SDS011;1026;51.460;7.252;2023-02-11T00:18:10;25.20;;;15.17;;
2041;SDS011;1026;51.460;7.252;2023-02-11T00:20:37;26.37;;;17.73;;
2041;SDS011;1026;51.460;7.252;2023-02-11T00:23:04;22.13;;;15.97;;
2041;SDS011;1026;51.460;7.252;2023-02-11T00:25:37;27.33;;;18.13;;
2041;SDS011;1026;51.460;7.252;2023-02-11T00:28:05;21.93;;;15.40;;
2041;SDS011;1026;51.460;7.252;2023-02-11T00:30:30;24.57;;;18.10;;
2041;SDS011;1026;51.460;7.252;2023-02-11T00:32:56;25.50;;;16.90;;
2041;SDS011;1026;51.460;7.252;2023-02-11T00:35:22;36.90;;;18.90;;
2041;SDS011;1026;51.460;7.252;2023-02-11T00:37:47;23.00;;;16.00;;
2041;SDS011;1026;51.460;7.252;2023-02-11T00:40:13;27.13;;;16.83;;
2041;SDS011;1026;51.460;7.252;2023-02-11T00:42:40;28.97;;;19.00;;
2041;SDS011;1026;51.460;7.252;2023-02-11T00:45:06;18.93;;;14.70;;
2041;SDS011;1026;51.460;7.252;2023-02-11T00:47:34;31.00;;;20.70;;
2041;SDS011;1026;51.460;7.252;2023-02-11T00:50:00;30.30;;;18.27;;
2041;SDS011;1026;51.460;7.252;2023-02-11T00:52:29;27.00;;;16.77;;
2041;SDS011;1026;51.460;7.252;2023-02-11T00:54:55;24.97;;;16.53;;
2041;SDS011;1026;51.460;7.252;2023-02-11T00:57:21;24.00;;;14.97;;
2041;SDS011;1026;51.460;7.252;2023-02-11T00:59:47;23.53;;;16.10;;
2041;SDS011;1026;51.460;7.252;2023-02-11T01:02:12;24.13;;;17.77;;
2041;SDS011;1026;51.460;7.252;2023-02-11T01:04:38;25.80;;;15.70;;
2041;SDS011;1026;51.460;7.252;2023-02-11T01:07:04;23.03;;;15.90;;
2041;SDS011;1026;51.460;7.252;2023-02-11T01:09:29;27.60;;;18.13;;
2041;SDS011;1026;51.460;7.252;2023-02-11T01:11:55;23.80;;;15.83;;
2041;SDS011;1026;51.460;7.252;2023-02-11T01:14:21;25.30;;;18.67;;
2041;SDS011;1026;51.460;7.252;2023-02-11T01:16:46;22.87;;;15.40;;
2041;SDS011;1026;51.460;7.252;2023-02-11T01:19:12;24.63;;;15.13;;
2041;SDS011;1026;51.460;7.252;2023-02-11T01:21:38;26.67;;;17.00;;
2041;SDS011;1026;51.460;7.252;2023-02-11T01:24:03;24.20;;;16.53;;
2041;SDS011;1026;51.460;7.252;2023-02-11T01:26:29;22.80;;;15.60;;
2041;SDS011;1026;51.460;7.252;2023-02-11T01:28:55;22.40;;;14.00;;
2041;SDS011;1026;51.460;7.252;2023-02-11T01:31:20;21.33;;;14.80;;
2041;SDS011;1026;51.460;7.252;2023-02-11T01:33:46;27.97;;;16.30;;
2041;SDS011;1026;51.460;7.252;2023-02-11T01:36:13;22.57;;;15.33;;
2041;SDS011;1026;51.460;7.252;2023-02-11T01:38:38;21.23;;;15.20;;
2041;SDS011;1026;51.460;7.252;2023-02-11T01:41:06;18.43;;;13.73;;
2041;SDS011;1026;51.460;7.252;2023-02-11T01:43:36;21.63;;;15.50;;
2041;SDS011;1026;51.460;7.252;2023-02-11T01:48:51;22.17;;;16.37;;
2041;SDS011;1026;51.460;7.252;2023-02-11T01:51:23;23.60;;;16.13;;
2041;SDS011;1026;51.460;7.252;2023-02-11T01:53:53;26.27;;;15.53;;
2041;SDS011;1026;51.460;7.252;2023-02-11T01:56:37;20.27;;;14.40;;
2041;SDS011;1026;51.460;7.252;2023-02-11T01:59:25;21.83;;;13.53;;
2041;SDS011;1026;51.460;7.252;2023-02-11T02:01:56;25.13;;;16.17;;
2041;SDS011;1026;51.460;7.252;2023-02-11T02:04:25;22.33;;;15.20;;
2041;SDS011;1026;51.460;7.252;2023-02-11T02:06:59;18.87;;;12.43;;
2041;SDS011;1026;51.460;7.252;2023-02-11T02:09:30;18.20;;;11.67;;
2041;SDS011;1026;51.460;7.252;2023-02-11T02:12:02;22.93;;;14.57;;
2041;SDS011;1026;51.460;7.252;2023-02-11T02:14:28;22.97;;;14.20;;
2041;SDS011;1026;51.460;7.252;2023-02-11T02:16:53;20.23;;;12.40;;
2041;SDS011;1026;51.460;7.252;2023-02-11T02:24:52;19.87;;;12.57;;
2041;SDS011;1026;51.460;7.252;2023-02-11T02:27:28;18.43;;;12.77;;
2041;SDS011;1026;51.460;7.252;2023-02-11T02:32:49;16.10;;;11.97;;
2041;SDS011;1026;51.460;7.252;2023-02-11T02:41:15;24.80;;;14.07;;
2041;SDS011;1026;51.460;7.252;2023-02-11T02:43:45;19.87;;;13.80;;
2041;SDS011;1026;51.460;7.252;2023-02-11T02:46:15;21.10;;;13.00;;
2041;SDS011;1026;51.460;7.252;2023-02-11T02:48:44;23.10;;;16.20;;
2041;SDS011;1026;51.460;7.252;2023-02-11T02:53:59;18.97;;;14.13;;
2041;SDS011;1026;51.460;7.252;2023-02-11T03:01:41;19.20;;;14.30;;
2041;SDS011;1026;51.460;7.252;2023-02-11T03:04:19;22.53;;;14.23;;
2041;SDS011;1026;51.460;7.252;2023-02-11T03:09:41;21.17;;;13.43;;
2041;SDS011;1026;51.460;7.252;2023-02-11T03:12:13;20.60;;;14.63;;
2041;SDS011;1026;51.460;7.252;2023-02-11T03:14:40;17.83;;;11.47;;
2041;SDS011;1026;51.460;7.252;2023-02-11T03:17:06;17.43;;;12.53;;
2041;SDS011;1026;51.460;7.252;2023-02-11T03:19:35;19.73;;;13.03;;
2041;SDS011;1026;51.460;7.252;2023-02-11T03:22:04;16.00;;;12.10;;
2041;SDS011;1026;51.460;7.252;2023-02-11T03:24:36;20.93;;;13.63;;
2041;SDS011;1026;51.460;7.252;2023-02-11T03:32:35;19.23;;;14.83;;
2041;SDS011;1026;51.460;7.252;2023-02-11T03:37:39;19.00;;;15.10;;
2041;SDS011;1026;51.460;7.252;2023-02-11T03:40:16;21.47;;;14.40;;
2041;SDS011;1026;51.460;7.252;2023-02-11T03:42:48;24.83;;;15.70;;
2041;SDS011;1026;51.460;7.252;2023-02-11T03:45:19;23.00;;;13.87;;
2041;SDS011;1026;51.460;7.252;2023-02-11T03:47:49;21.93;;;15.40;;
2041;SDS011;1026;51.460;7.252;2023-02-11T03:50:18;21.67;;;14.10;;
2041;SDS011;1026;51.460;7.252;2023-02-11T03:52:46;16.60;;;12.57;;
2041;SDS011;1026;51.460;7.252;2023-02-11T03:55:14;19.33;;;13.93;;
2041;SDS011;1026;51.460;7.252;2023-02-11T03:57:42;16.67;;;13.60;;
2041;SDS011;1026;51.460;7.252;2023-02-11T04:00:08;15.70;;;11.90;;
2041;SDS011;1026;51.460;7.252;2023-02-11T04:02:42;23.23;;;14.50;;
2041;SDS011;1026;51.460;7.252;2023-02-11T04:05:09;23.70;;;12.67;;
2041;SDS011;1026;51.460;7.252;2023-02-11T04:07:36;18.63;;;12.00;;
2041;SDS011;1026;51.460;7.252;2023-02-11T04:10:02;17.30;;;12.30;;
2041;SDS011;1026;51.460;7.252;2023-02-11T04:12:28;24.13;;;14.17;;
2041;SDS011;1026;51.460;7.252;2023-02-11T04:14:54;17.90;;;13.77;;
2041;SDS011;1026;51.460;7.252;2023-02-11T04:17:19;17.17;;;13.73;;
2041;SDS011;1026;51.460;7.252;2023-02-11T04:19:45;25.23;;;14.30;;
2041;SDS011;1026;51.460;7.252;2023-02-11T04:22:11;23.70;;;14.90;;
2041;SDS011;1026;51.460;7.252;2023-02-11T04:24:37;19.63;;;13.03;;
2041;SDS011;1026;51.460;7.252;2023-02-11T04:27:02;25.80;;;14.10;;
2041;SDS011;1026;51.460;7.252;2023-02-11T04:29:28;21.53;;;13.77;;
2041;SDS011;1026;51.460;7.252;2023-02-11T04:31:54;18.50;;;13.57;;
2041;SDS011;1026;51.460;7.252;2023-02-11T04:34:21;20.90;;;13.17;;
2041;SDS011;1026;51.460;7.252;2023-02-11T04:36:49;21.77;;;14.70;;
2041;SDS011;1026;51.460;7.252;2023-02-11T04:39:16;23.03;;;15.20;;
2041;SDS011;1026;51.460;7.252;2023-02-11T04:41:43;16.07;;;12.60;;
2041;SDS011;1026;51.460;7.252;2023-02-11T04:44:10;16.53;;;13.60;;
2041;SDS011;1026;51.460;7.252;2023-02-11T04:46:36;19.37;;;12.87;;
2041;SDS011;1026;51.460;7.252;2023-02-11T04:49:01;21.30;;;15.87;;
2041;SDS011;1026;51.460;7.252;2023-02-11T04:51:27;23.90;;;13.57;;
2041;SDS011;1026;51.460;7.252;2023-02-11T04:53:53;19.57;;;15.10;;
2041;SDS011;1026;51.460;7.252;2023-02-11T04:56:19;21.90;;;13.63;;
2041;SDS011;1026;51.460;7.252;2023-02-11T04:58:46;24.43;;;15.30;;
2041;SDS011;1026;51.460;7.252;2023-02-11T05:01:14;17.73;;;11.90;;
2041;SDS011;1026;51.460;7.252;2023-02-11T05:03:41;21.33;;;14.40;;
2041;SDS011;1026;51.460;7.252;2023-02-11T05:06:08;19.67;;;13.50;;
2041;SDS011;1026;51.460;7.252;2023-02-11T05:08:35;20.37;;;14.83;;
2041;SDS011;1026;51.460;7.252;2023-02-11T05:11:01;20.50;;;13.50;;
2041;SDS011;1026;51.460;7.252;2023-02-11T05:13:27;17.20;;;12.90;;
2041;SDS011;1026;51.460;7.252;2023-02-11T05:15:53;18.60;;;13.43;;
2041;SDS011;1026;51.460;7.252;2023-02-11T05:18:20;19.90;;;13.03;;
2041;SDS011;1026;51.460;7.252;2023-02-11T05:20:47;18.60;;;13.20;;
2041;SDS011;1026;51.460;7.252;2023-02-11T05:23:14;20.93;;;11.13;;
2041;SDS011;1026;51.460;7.252;2023-02-11T05:25:40;27.93;;;15.03;;
2041;SDS011;1026;51.460;7.252;2023-02-11T05:28:07;14.30;;;12.07;;
2041;SDS011;1026;51.460;7.252;2023-02-11T05:30:33;13.67;;;11.63;;
2041;SDS011;1026;51.460;7.252;2023-02-11T05:33:00;19.00;;;14.87;;
2041;SDS011;1026;51.460;7.252;2023-02-11T05:35:26;23.83;;;13.63;;
2041;SDS011;1026;51.460;7.252;2023-02-11T05:37:52;15.37;;;12.10;;
2041;SDS011;1026;51.460;7.252;2023-02-11T05:40:18;20.40;;;14.00;;
2041;SDS011;1026;51.460;7.252;2023-02-11T05:42:43;17.20;;;14.63;;
2041;SDS011;1026;51.460;7.252;2023-02-11T05:45:10;21.20;;;15.10;;
2041;SDS011;1026;51.460;7.252;2023-02-11T05:47:37;21.37;;;15.37;;
2041;SDS011;1026;51.460;7.252;2023-02-11T05:50:03;27.80;;;16.97;;
2041;SDS011;1026;51.460;7.252;2023-02-11T05:52:29;19.73;;;14.57;;
2041;SDS011;1026;51.460;7.252;2023-02-11T05:54:56;14.70;;;11.27;;
2041;SDS011;1026;51.460;7.252;2023-02-11T05:57:21;19.33;;;13.67;;
2041;SDS011;1026;51.460;7.252;2023-02-11T05:59:47;19.20;;;13.07;;
2041;SDS011;1026;51.460;7.252;2023-02-11T06:02:13;19.30;;;15.23;;
2041;SDS011;1026;51.460;7.252;2023-02-11T06:04:39;25.97;;;16.53;;
2041;SDS011;1026;51.460;7.252;2023-02-11T06:07:06;21.90;;;14.33;;
2041;SDS011;1026;51.460;7.252;2023-02-11T06:09:32;22.80;;;14.40;;
2041;SDS011;1026;51.460;7.252;2023-02-11T06:12:00;26.87;;;17.03;;
2041;SDS011;1026;51.460;7.252;2023-02-11T06:14:26;23.80;;;15.97;;
2041;SDS011;1026;51.460;7.252;2023-02-11T06:16:54;26.07;;;15.30;;
2041;SDS011;1026;51.460;7.252;2023-02-11T06:19:20;26.07;;;17.87;;
2041;SDS011;1026;51.460;7.252;2023-02-11T06:21:46;28.27;;;16.33;;
2041;SDS011;1026;51.460;7.252;2023-02-11T06:24:13;21.20;;;13.97;;
2041;SDS011;1026;51.460;7.252;2023-02-11T06:26:55;23.33;;;13.93;;
2041;SDS011;1026;51.460;7.252;2023-02-11T06:29:21;15.23;;;12.10;;
2041;SDS011;1026;51.460;7.252;2023-02-11T06:31:47;19.20;;;13.97;;
2041;SDS011;1026;51.460;7.252;2023-02-11T06:34:16;24.17;;;15.50;;
2041;SDS011;1026;51.460;7.252;2023-02-11T06:36:42;21.87;;;14.60;;
2041;SDS011;1026;51.460;7.252;2023-02-11T06:39:08;24.30;;;16.20;;
2041;SDS011;1026;51.460;7.252;2023-02-11T06:41:37;22.63;;;14.80;;
2041;SDS011;1026;51.460;7.252;2023-02-11T06:44:03;29.57;;;19.20;;
2041;SDS011;1026;51.460;7.252;2023-02-11T06:46:30;28.83;;;15.70;;
2041;SDS011;1026;51.460;7.252;2023-02-11T06:48:55;26.00;;;16.10;;
2041;SDS011;1026;51.460;7.252;2023-02-11T06:51:21;28.67;;;17.53;;
2041;SDS011;1026;51.460;7.252;2023-02-11T06:53:47;22.17;;;16.20;;
2041;SDS011;1026;51.460;7.252;2023-02-11T06:56:14;23.87;;;14.53;;
2041;SDS011;1026;51.460;7.252;2023-02-11T06:58:44;22.60;;;15.60;;
2041;SDS011;1026;51.460;7.252;2023-02-11T07:01:12;22.20;;;15.70;;
2041;SDS011;1026;51.460;7.252;2023-02-11T07:03:41;19.97;;;13.20;;
2041;SDS011;1026;51.460;7.252;2023-02-11T07:06:10;22.03;;;15.47;;
2041;SDS011;1026;51.460;7.252;2023-02-11T07:08:39;28.10;;;16.30;;
2041;SDS011;1026;51.460;7.252;2023-02-11T07:11:08;29.70;;;18.60;;
2041;SDS011;1026;51.460;7.252;2023-02-11T07:13:36;19.63;;;13.37;;
2041;SDS011;1026;51.460;7.252;2023-02-11T07:16:06;26.10;;;16.50;;
2041;SDS011;1026;51.460;7.252;2023-02-11T07:18:34;25.80;;;15.90;;
2041;SDS011;1026;51.460;7.252;2023-02-11T07:21:08;19.10;;;12.27;;
2041;SDS011;1026;51.460;7.252;2023-02-11T07:23:37;26.20;;;17.17;;
2041;SDS011;1026;51.460;7.252;2023-02-11T07:26:05;32.37;;;16.33;;
2041;SDS011;1026;51.460;7.252;2023-02-11T07:28:33;26.57;;;17.53;;
2041;SDS011;1026;51.460;7.252;2023-02-11T07:31:06;23.27;;;15.77;;
2041;SDS011;1026;51.460;7.252;2023-02-11T07:33:37;30.73;;;16.97;;
2041;SDS011;1026;51.460;7.252;2023-02-11T07:36:04;24.73;;;15.10;;
2041;SDS011;1026;51.460;7.252;2023-02-11T07:38:40;25.90;;;14.23;;
2041;SDS011;1026;51.460;7.252;2023-02-11T07:41:07;23.03;;;14.70;;
2041;SDS011;1026;51.460;7.252;2023-02-11T07:43:37;32.63;;;17.90;;
2041;SDS011;1026;51.460;7.252;2023-02-11T07:46:05;23.37;;;16.17;;
2041;SDS011;1026;51.460;7.252;2023-02-11T07:48:32;34.30;;;19.40;;
2041;SDS011;1026;51.460;7.252;2023-02-11T07:51:14;34.70;;;19.30;;
2041;SDS011;1026;51.460;7.252;2023-02-11T07:53:46;28.80;;;17.07;;
2041;SDS011;1026;51.460;7.252;2023-02-11T07:56:15;27.40;;;15.83;;
2041;SDS011;1026;51.460;7.252;2023-02-11T07:58:43;27.03;;;15.17;;
2041;SDS011;1026;51.460;7.252;2023-02-11T08:01:11;27.07;;;16.50;;
2041;SDS011;1026;51.460;7.252;2023-02-11T08:03:41;31.87;;;18.67;;
2041;SDS011;1026;51.460;7.252;2023-02-11T08:06:10;29.40;;;16.27;;
2041;SDS011;1026;51.460;7.252;2023-02-11T08:08:37;31.67;;;18.37;;
2041;SDS011;1026;51.460;7.252;2023-02-11T08:11:06;20.60;;;12.97;;
2041;SDS011;1026;51.460;7.252;2023-02-11T08:13:37;34.97;;;18.77;;
2041;SDS011;1026;51.460;7.252;2023-02-11T08:16:47;35.67;;;19.37;;
2041;SDS011;1026;51.460;7.252;2023-02-11T08:20:14;24.17;;;14.97;;
2041;SDS011;1026;51.460;7.252;2023-02-11T08:23:04;18.37;;;12.67;;
2041;SDS011;1026;51.460;7.252;2023-02-11T08:27:05;42.05;;;23.52;;
2041;SDS011;1026;51.460;7.252;2023-02-11T08:29:44;29.80;;;18.93;;
2041;SDS011;1026;51.460;7.252;2023-02-11T08:36:01;41.47;;;18.43;;
2041;SDS011;1026;51.460;7.252;2023-02-11T08:38:54;43.27;;;19.20;;
2041;SDS011;1026;51.460;7.252;2023-02-11T08:46:00;19.73;;;12.43;;
2041;SDS011;1026;51.460;7.252;2023-02-11T08:48:31;36.00;;;21.73;;
2041;SDS011;1026;51.460;7.252;2023-02-11T08:51:05;27.90;;;15.17;;
2041;SDS011;1026;51.460;7.252;2023-02-11T08:53:53;41.57;;;20.30;;
2041;SDS011;1026;51.460;7.252;2023-02-11T08:56:21;30.07;;;17.00;;
2041;SDS011;1026;51.460;7.252;2023-02-11T08:58:57;25.83;;;15.50;;
2041;SDS011;1026;51.460;7.252;2023-02-11T09:01:24;31.00;;;16.93;;
2041;SDS011;1026;51.460;7.252;2023-02-11T09:03:51;29.83;;;16.37;;
2041;SDS011;1026;51.460;7.252;2023-02-11T09:06:18;34.57;;;19.73;;
2041;SDS011;1026;51.460;7.252;2023-02-11T09:08:45;35.17;;;16.90;;
2041;SDS011;1026;51.460;7.252;2023-02-11T09:11:13;52.03;;;22.60;;
2041;SDS011;1026;51.460;7.252;2023-02-11T09:13:39;52.60;;;25.30;;
2041;SDS011;1026;51.460;7.252;2023-02-11T09:16:06;53.83;;;27.77;;
2041;SDS011;1026;51.460;7.252;2023-02-11T09:18:32;35.57;;;20.37;;
2041;SDS011;1026;51.460;7.252;2023-02-11T09:21:02;33.50;;;19.80;;
2041;SDS011;1026;51.460;7.252;2023-02-11T09:23:28;38.20;;;17.23;;
2041;SDS011;1026;51.460;7.252;2023-02-11T09:25:54;38.43;;;20.60;;
2041;SDS011;1026;51.460;7.252;2023-02-11T09:28:20;51.27;;;20.10;;
2041;SDS011;1026;51.460;7.252;2023-02-11T09:30:46;40.37;;;24.43;;
2041;SDS011;1026;51.460;7.252;2023-02-11T09:33:11;41.67;;;19.93;;
2041;SDS011;1026;51.460;7.252;2023-02-11T09:35:37;39.57;;;22.87;;
2041;SDS011;1026;51.460;7.252;2023-02-11T09:38:02;31.13;;;18.40;;
2041;SDS011;1026;51.460;7.252;2023-02-11T09:40:28;37.27;;;21.53;;
2041;SDS011;1026;51.460;7.252;2023-02-11T09:43:06;39.40;;;20.63;;
2041;SDS011;1026;51.460;7.252;2023-02-11T09:45:45;41.80;;;20.77;;
2041;SDS011;1026;51.460;7.252;2023-02-11T09:48:13;37.87;;;21.33;;
2041;SDS011;1026;51.460;7.252;2023-02-11T09:50:42;32.63;;;18.83;;
2041;SDS011;1026;51.460;7.252;2023-02-11T09:55:56;42.93;;;21.87;;
2041;SDS011;1026;51.460;7.252;2023-02-11T10:00:58;39.17;;;21.80;;
2041;SDS011;1026;51.460;7.252;2023-02-11T10:09:24;43.90;;;24.07;;
2041;SDS011;1026;51.460;7.252;2023-02-11T10:17:37;40.63;;;21.30;;
2041;SDS011;1026;51.460;7.252;2023-02-11T10:20:18;33.83;;;19.60;;
2041;SDS011;1026;51.460;7.252;2023-02-11T10:23:04;37.90;;;20.73;;
2041;SDS011;1026;51.460;7.252;2023-02-11T10:25:40;33.07;;;20.40;;
2041;SDS011;1026;51.460;7.252;2023-02-11T10:28:10;51.00;;;25.13;;
2041;SDS011;1026;51.460;7.252;2023-02-11T10:33:59;32.23;;;17.87;;
2041;SDS011;1026;51.460;7.252;2023-02-11T10:36:30;34.77;;;21.03;;
2041;SDS011;1026;51.460;7.252;2023-02-11T10:38:59;42.53;;;22.77;;
2041;SDS011;1026;51.460;7.252;2023-02-11T10:41:30;41.00;;;21.10;;
2041;SDS011;1026;51.460;7.252;2023-02-11T10:43:59;28.50;;;16.93;;
2041;SDS011;1026;51.460;7.252;2023-02-11T10:46:28;47.17;;;23.33;;
2041;SDS011;1026;51.460;7.252;2023-02-11T10:48:56;25.07;;;14.47;;
2041;SDS011;1026;51.460;7.252;2023-02-11T10:51:22;38.37;;;21.27;;
2041;SDS011;1026;51.460;7.252;2023-02-11T10:56:34;31.73;;;19.47;;
2041;SDS011;1026;51.460;7.252;2023-02-11T10:59:01;33.93;;;16.37;;
2041;SDS011;1026;51.460;7.252;2023-02-11T11:07:13;51.17;;;24.57;;
2041;SDS011;1026;51.460;7.252;2023-02-11T11:09:44;40.67;;;23.70;;
2041;SDS011;1026;51.460;7.252;2023-02-11T11:14:57;44.03;;;21.27;;
2041;SDS011;1026;51.460;7.252;2023-02-11T11:17:24;42.70;;;21.30;;
2041;SDS011;1026;51.460;7.252;2023-02-11T11:19:55;50.10;;;22.17;;
2041;SDS011;1026;51.460;7.252;2023-02-11T11:22:35;45.73;;;23.30;;
2041;SDS011;1026;51.460;7.252;2023-02-11T11:25:02;41.77;;;23.00;;
2041;SDS011;1026;51.460;7.252;2023-02-11T11:27:28;47.03;;;24.43;;
2041;SDS011;1026;51.460;7.252;2023-02-11T11:29:54;35.77;;;20.33;;
2041;SDS011;1026;51.460;7.252;2023-02-11T11:32:21;36.93;;;22.43;;
2041;SDS011;1026;51.460;7.252;2023-02-11T11:34:50;39.60;;;18.77;;
2041;SDS011;1026;51.460;7.252;2023-02-11T11:37:25;47.57;;;25.57;;
2041;SDS011;1026;51.460;7.252;2023-02-11T11:42:41;46.93;;;22.83;;
2041;SDS011;1026;51.460;7.252;2023-02-11T11:50:43;58.43;;;26.03;;
2041;SDS011;1026;51.460;7.252;2023-02-11T11:53:13;43.70;;;27.30;;
2041;SDS011;1026;51.460;7.252;2023-02-11T11:55:56;54.43;;;29.40;;
2041;SDS011;1026;51.460;7.252;2023-02-11T11:58:29;48.10;;;26.30;;
2041;SDS011;1026;51.460;7.252;2023-02-11T12:09:57;33.37;;;20.57;;
2041;SDS011;1026;51.460;7.252;2023-02-11T12:12:45;50.97;;;24.77;;
2041;SDS011;1026;51.460;7.252;2023-02-11T12:26:42;44.93;;;25.90;;
2041;SDS011;1026;51.460;7.252;2023-02-11T12:29:19;48.93;;;25.97;;
2041;SDS011;1026;51.460;7.252;2023-02-11T12:31:52;50.77;;;28.37;;
2041;SDS011;1026;51.460;7.252;2023-02-11T12:56:04;51.33;;;25.70;;
2041;SDS011;1026;51.460;7.252;2023-02-11T12:58:36;49.20;;;27.53;;
2041;SDS011;1026;51.460;7.252;2023-02-11T13:01:05;49.10;;;23.43;;
2041;SDS011;1026;51.460;7.252;2023-02-11T13:03:40;58.60;;;28.60;;
2041;SDS011;1026;51.460;7.252;2023-02-11T13:06:13;48.30;;;27.60;;
2041;SDS011;1026;51.460;7.252;2023-02-11T13:08:43;64.30;;;27.87;;
2041;SDS011;1026;51.460;7.252;2023-02-11T13:11:14;55.37;;;30.93;;
2041;SDS011;1026;51.460;7.252;2023-02-11T13:21:52;48.97;;;27.77;;
2041;SDS011;1026;51.460;7.252;2023-02-11T13:35:26;51.27;;;27.67;;
2041;SDS011;1026;51.460;7.252;2023-02-11T13:37:58;53.23;;;30.97;;
2041;SDS011;1026;51.460;7.252;2023-02-11T13:40:27;57.07;;;30.00;;
2041;SDS011;1026;51.460;7.252;2023-02-11T13:42:58;55.93;;;30.40;;
2041;SDS011;1026;51.460;7.252;2023-02-11T13:45:27;52.17;;;27.80;;
2041;SDS011;1026;51.460;7.252;2023-02-11T13:47:55;61.60;;;31.00;;
2041;SDS011;1026;51.460;7.252;2023-02-11T13:50:24;51.37;;;28.40;;
2041;SDS011;1026;51.460;7.252;2023-02-11T13:52:58;40.17;;;24.27;;
2041;SDS011;1026;51.460;7.252;2023-02-11T13:55:26;48.07;;;26.50;;
2041;SDS011;1026;51.460;7.252;2023-02-11T14:06:10;58.03;;;29.07;;
2041;SDS011;1026;51.460;7.252;2023-02-11T14:08:58;47.03;;;28.90;;
2041;SDS011;1026;51.460;7.252;2023-02-11T14:19:31;58.47;;;33.07;;
2041;SDS011;1026;51.460;7.252;2023-02-11T14:24:43;54.77;;;28.80;;
2041;SDS011;1026;51.460;7.252;2023-02-11T14:43:11;50.13;;;26.40;;
2041;SDS011;1026;51.460;7.252;2023-02-11T14:45:43;52.37;;;28.10;;
2041;SDS011;1026;51.460;7.252;2023-02-11T14:48:15;50.77;;;28.07;;
2041;SDS011;1026;51.460;7.252;2023-02-11T14:53:13;51.80;;;24.90;;
2041;SDS011;1026;51.460;7.252;2023-02-11T14:55:42;54.00;;;29.30;;
2041;SDS011;1026;51.460;7.252;2023-02-11T14:58:13;45.40;;;26.50;;
2041;SDS011;1026;51.460;7.252;2023-02-11T15:05:55;36.53;;;22.17;;
2041;SDS011;1026;51.460;7.252;2023-02-11T15:08:24;46.90;;;28.07;;
2041;SDS011;1026;51.460;7.252;2023-02-11T15:10:51;43.87;;;25.30;;
2041;SDS011;1026;51.460;7.252;2023-02-11T15:13:19;46.67;;;25.90;;
2041;SDS011;1026;51.460;7.252;2023-02-11T15:15:52;42.50;;;24.07;;
2041;SDS011;1026;51.460;7.252;2023-02-11T15:18:21;61.77;;;27.30;;
2041;SDS011;1026;51.460;7.252;2023-02-11T15:20:51;48.80;;;23.97;;
2041;SDS011;1026;51.460;7.252;2023-02-11T15:23:22;50.87;;;26.60;;
2041;SDS011;1026;51.460;7.252;2023-02-11T15:25:50;33.27;;;21.87;;
2041;SDS011;1026;51.460;7.252;2023-02-11T15:28:22;42.97;;;25.67;;
2041;SDS011;1026;51.460;7.252;2023-02-11T15:33:39;50.37;;;26.20;;
2041;SDS011;1026;51.460;7.252;2023-02-11T15:36:05;37.50;;;22.70;;
2041;SDS011;1026;51.460;7.252;2023-02-11T15:38:33;44.10;;;25.57;;
2041;SDS011;1026;51.460;7.252;2023-02-11T15:41:00;34.83;;;20.17;;
2041;SDS011;1026;51.460;7.252;2023-02-11T15:46:10;44.00;;;23.37;;
2041;SDS011;1026;51.460;7.252;2023-02-11T15:48:41;44.20;;;26.47;;
2041;SDS011;1026;51.460;7.252;2023-02-11T15:51:17;36.60;;;24.37;;
2041;SDS011;1026;51.460;7.252;2023-02-11T15:53:47;35.23;;;22.00;;
2041;SDS011;1026;51.460;7.252;2023-02-11T15:59:08;39.30;;;25.60;;
2041;SDS011;1026;51.460;7.252;2023-02-11T16:01:36;32.20;;;19.60;;
2041;SDS011;1026;51.460;7.252;2023-02-11T16:04:04;42.97;;;26.10;;
2041;SDS011;1026;51.460;7.252;2023-02-11T16:06:36;38.03;;;23.17;;
2041;SDS011;1026;51.460;7.252;2023-02-11T16:11:56;39.20;;;23.73;;
2041;SDS011;1026;51.460;7.252;2023-02-11T16:14:32;51.13;;;26.63;;
2041;SDS011;1026;51.460;7.252;2023-02-11T16:17:08;45.20;;;22.27;;
2041;SDS011;1026;51.460;7.252;2023-02-11T16:19:40;47.50;;;25.80;;
2041;SDS011;1026;51.460;7.252;2023-02-11T16:22:09;41.47;;;24.53;;
2041;SDS011;1026;51.460;7.252;2023-02-11T16:24:39;41.10;;;24.40;;
2041;SDS011;1026;51.460;7.252;2023-02-11T16:29:48;50.20;;;23.73;;
2041;SDS011;1026;51.460;7.252;2023-02-11T16:32:16;39.70;;;24.20;;
2041;SDS011;1026;51.460;7.252;2023-02-11T16:34:42;40.07;;;26.20;;
2041;SDS011;1026;51.460;7.252;2023-02-11T16:37:08;47.03;;;27.00;;
2041;SDS011;1026;51.460;7.252;2023-02-11T16:39:34;39.40;;;24.03;;
2041;SDS011;1026;51.460;7.252;2023-02-11T16:42:00;50.43;;;26.73;;
2041;SDS011;1026;51.460;7.252;2023-02-11T16:44:27;40.60;;;23.77;;
2041;SDS011;1026;51.460;7.252;2023-02-11T16:46:53;47.20;;;26.20;;
2041;SDS011;1026;51.460;7.252;2023-02-11T16:49:22;52.27;;;26.40;;
2041;SDS011;1026;51.460;7.252;2023-02-11T16:51:51;37.87;;;25.23;;
2041;SDS011;1026;51.460;7.252;2023-02-11T16:54:21;43.63;;;26.70;;
2041;SDS011;1026;51.460;7.252;2023-02-11T16:56:47;42.93;;;24.97;;
2041;SDS011;1026;51.460;7.252;2023-02-11T16:59:13;38.47;;;25.63;;
2041;SDS011;1026;51.460;7.252;2023-02-11T17:01:39;41.73;;;24.13;;
2041;SDS011;1026;51.460;7.252;2023-02-11T17:04:09;35.33;;;22.73;;
2041;SDS011;1026;51.460;7.252;2023-02-11T17:06:40;45.30;;;25.33;;
2041;SDS011;1026;51.460;7.252;2023-02-11T17:09:07;45.17;;;23.80;;
2041;SDS011;1026;51.460;7.252;2023-02-11T17:11:37;41.70;;;25.60;;
2041;SDS011;1026;51.460;7.252;2023-02-11T17:14:03;46.13;;;25.73;;
2041;SDS011;1026;51.460;7.252;2023-02-11T17:16:28;55.33;;;27.80;;
2041;SDS011;1026;51.460;7.252;2023-02-11T17:18:54;46.10;;;24.70;;
2041;SDS011;1026;51.460;7.252;2023-02-11T17:21:20;42.90;;;26.13;;
2041;SDS011;1026;51.460;7.252;2023-02-11T17:23:45;53.50;;;27.93;;
2041;SDS011;1026;51.460;7.252;2023-02-11T17:26:11;40.67;;;24.10;;
2041;SDS011;1026;51.460;7.252;2023-02-11T17:28:37;40.40;;;21.57;;
2041;SDS011;1026;51.460;7.252;2023-02-11T17:31:05;51.63;;;26.33;;
2041;SDS011;1026;51.460;7.252;2023-02-11T17:33:33;37.27;;;23.47;;
2041;SDS011;1026;51.460;7.252;2023-02-11T17:35:58;43.90;;;23.93;;
2041;SDS011;1026;51.460;7.252;2023-02-11T17:38:27;40.17;;;25.27;;
2041;SDS011;1026;51.460;7.252;2023-02-11T17:40:57;44.13;;;26.10;;
2041;SDS011;1026;51.460;7.252;2023-02-11T17:43:23;40.17;;;21.97;;
2041;SDS011;1026;51.460;7.252;2023-02-11T17:45:49;40.27;;;24.67;;
2041;SDS011;1026;51.460;7.252;2023-02-11T17:48:15;44.03;;;23.37;;
2041;SDS011;1026;51.460;7.252;2023-02-11T17:50:40;43.03;;;24.07;;
2041;SDS011;1026;51.460;7.252;2023-02-11T17:53:06;43.30;;;25.90;;
2041;SDS011;1026;51.460;7.252;2023-02-11T17:55:32;40.77;;;25.33;;
2041;SDS011;1026;51.460;7.252;2023-02-11T17:57:59;32.50;;;22.50;;
2041;SDS011;1026;51.460;7.252;2023-02-11T18:00:25;42.80;;;24.53;;
2041;SDS011;1026;51.460;7.252;2023-02-11T18:02:58;38.77;;;23.20;;
2041;SDS011;1026;51.460;7.252;2023-02-11T18:05:27;38.33;;;23.70;;
2041;SDS011;1026;51.460;7.252;2023-02-11T18:07:57;37.07;;;23.40;;
2041;SDS011;1026;51.460;7.252;2023-02-11T18:10:23;56.13;;;25.50;;
2041;SDS011;1026;51.460;7.252;2023-02-11T18:12:48;34.90;;;20.40;;
2041;SDS011;1026;51.460;7.252;2023-02-11T18:15:14;38.47;;;24.10;;
2041;SDS011;1026;51.460;7.252;2023-02-11T18:17:40;40.90;;;23.97;;
2041;SDS011;1026;51.460;7.252;2023-02-11T18:20:06;38.40;;;24.13;;
2041;SDS011;1026;51.460;7.252;2023-02-11T18:22:32;42.63;;;24.70;;